TAP192 LPPR-LPPT
Flight info
| Callsign | TAP192 |
|---|---|
| Flight time | 0h 34m |
| Altitude | 22000 |
| Route | MANIK DCT ABRIL DCT XAMAX |
| Aircraft | A320/M-SDE3FGHIRWY/LB1 |
Departure
| Time | 2026-05-07 12:07 |
|---|---|
| Airport | Francisco de Sá Carneiro Airport (LPPR) |
Arrival
| Time | 2026-05-07 12:42 |
|---|---|
| Airport | Lisbon Humberto Delgado Airport (LPPT) |
| Time | Latitude | Longitude | Altitude | Speed | Heading |
|---|---|---|---|---|---|
| 2026-05-07 11:27 | 41.23593 | -8.67220 | 245 ft | 0 kts | 89° |
| 2026-05-07 11:54 | 41.23593 | -8.67221 | 245 ft | 1 kts | 88° |
| 2026-05-07 11:55 | 41.23594 | -8.67252 | 245 ft | 4 kts | 101° |
| 2026-05-07 11:55 | 41.23602 | -8.67286 | 244 ft | 4 kts | 118° |
| 2026-05-07 11:55 | 41.23617 | -8.67314 | 243 ft | 4 kts | 137° |
| 2026-05-07 11:55 | 41.23639 | -8.67333 | 242 ft | 4 kts | 164° |
| 2026-05-07 11:56 | 41.23644 | -8.67335 | 242 ft | 0 kts | 168° |
| 2026-05-07 12:01 | 41.23610 | -8.67329 | 242 ft | 15 kts | 178° |
| 2026-05-07 12:01 | 41.23516 | -8.67389 | 240 ft | 14 kts | 197° |
| 2026-05-07 12:01 | 41.23438 | -8.67412 | 237 ft | 9 kts | 268° |
| 2026-05-07 12:02 | 41.23469 | -8.67422 | 237 ft | 5 kts | 5° |
| 2026-05-07 12:02 | 41.23543 | -8.67417 | 238 ft | 12 kts | 3° |
| 2026-05-07 12:02 | 41.23645 | -8.67429 | 238 ft | 18 kts | 349° |
| 2026-05-07 12:02 | 41.23775 | -8.67464 | 239 ft | 20 kts | 348° |
| 2026-05-07 12:03 | 41.23914 | -8.67503 | 238 ft | 21 kts | 353° |
| 2026-05-07 12:03 | 41.24066 | -8.67538 | 238 ft | 22 kts | 349° |
| 2026-05-07 12:03 | 41.24206 | -8.67577 | 238 ft | 21 kts | 342° |
| 2026-05-07 12:03 | 41.24312 | -8.67705 | 230 ft | 22 kts | 329° |
| 2026-05-07 12:04 | 41.24475 | -8.67752 | 221 ft | 27 kts | 349° |
| 2026-05-07 12:04 | 41.24674 | -8.67804 | 210 ft | 32 kts | 349° |
| 2026-05-07 12:04 | 41.24880 | -8.67909 | 201 ft | 31 kts | 339° |
| 2026-05-07 12:04 | 41.25045 | -8.67956 | 199 ft | 19 kts | 348° |
| 2026-05-07 12:05 | 41.25182 | -8.67993 | 194 ft | 20 kts | 347° |
| 2026-05-07 12:05 | 41.25264 | -8.68014 | 182 ft | 19 kts | 349° |
| 2026-05-07 12:05 | 41.25388 | -8.68045 | 178 ft | 20 kts | 348° |
| 2026-05-07 12:05 | 41.25535 | -8.68084 | 173 ft | 23 kts | 346° |
| 2026-05-07 12:06 | 41.25651 | -8.68124 | 170 ft | 14 kts | 327° |
| 2026-05-07 12:06 | 41.25672 | -8.68233 | 170 ft | 12 kts | 261° |
| 2026-05-07 12:06 | 41.25644 | -8.68318 | 171 ft | 9 kts | 223° |
| 2026-05-07 12:06 | 41.25466 | -8.68298 | 176 ft | 60 kts | 168° |
| 2026-05-07 12:07 | 41.24784 | -8.68119 | 209 ft | 137 kts | 169° |
| 2026-05-07 12:07 | 41.23707 | -8.67840 | 654 ft | 161 kts | 168° |
| 2026-05-07 12:07 | 41.22612 | -8.67552 | 1593 ft | 160 kts | 168° |
| 2026-05-07 12:07 | 41.21492 | -8.67250 | 2079 ft | 177 kts | 168° |
| 2026-05-07 12:08 | 41.20215 | -8.66909 | 2367 ft | 199 kts | 168° |
| 2026-05-07 12:08 | 41.18765 | -8.66521 | 2631 ft | 226 kts | 168° |
| 2026-05-07 12:08 | 41.17148 | -8.66101 | 3083 ft | 248 kts | 168° |
| 2026-05-07 12:08 | 41.15400 | -8.65647 | 3726 ft | 261 kts | 169° |
| 2026-05-07 12:09 | 41.13601 | -8.65178 | 4599 ft | 266 kts | 169° |
| 2026-05-07 12:09 | 41.11773 | -8.64702 | 5443 ft | 271 kts | 169° |
| 2026-05-07 12:09 | 41.09902 | -8.64216 | 6281 ft | 277 kts | 170° |
| 2026-05-07 12:09 | 41.08000 | -8.63730 | 7155 ft | 280 kts | 173° |
| 2026-05-07 12:10 | 41.06054 | -8.63558 | 8040 ft | 281 kts | 179° |
| 2026-05-07 12:10 | 41.04098 | -8.63452 | 8947 ft | 282 kts | 179° |
| 2026-05-07 12:10 | 41.02126 | -8.63346 | 9797 ft | 285 kts | 180° |
| 2026-05-07 12:10 | 41.00128 | -8.63244 | 10558 ft | 292 kts | 180° |
| 2026-05-07 12:11 | 40.98014 | -8.63139 | 10847 ft | 315 kts | 180° |
| 2026-05-07 12:11 | 40.95739 | -8.63027 | 11078 ft | 339 kts | 180° |
| 2026-05-07 12:11 | 40.93321 | -8.62902 | 11498 ft | 353 kts | 180° |
| 2026-05-07 12:11 | 40.90845 | -8.62769 | 12168 ft | 358 kts | 180° |
| 2026-05-07 12:12 | 40.88346 | -8.62635 | 12872 ft | 362 kts | 180° |
| 2026-05-07 12:12 | 40.85812 | -8.62497 | 13568 ft | 366 kts | 180° |
| 2026-05-07 12:12 | 40.83260 | -8.62357 | 14249 ft | 369 kts | 180° |
| 2026-05-07 12:12 | 40.80681 | -8.62216 | 14886 ft | 373 kts | 180° |
| 2026-05-07 12:13 | 40.78073 | -8.62077 | 15522 ft | 377 kts | 180° |
| 2026-05-07 12:13 | 40.75444 | -8.61937 | 16143 ft | 380 kts | 180° |
| 2026-05-07 12:13 | 40.72794 | -8.61799 | 16743 ft | 383 kts | 180° |
| 2026-05-07 12:13 | 40.70154 | -8.61666 | 17303 ft | 386 kts | 180° |
| 2026-05-07 12:14 | 40.67453 | -8.61492 | 17861 ft | 390 kts | 179° |
| 2026-05-07 12:14 | 40.64734 | -8.61212 | 18400 ft | 394 kts | 178° |
| 2026-05-07 12:14 | 40.61996 | -8.60860 | 18935 ft | 397 kts | 177° |
| 2026-05-07 12:14 | 40.59238 | -8.60477 | 19458 ft | 400 kts | 176° |
| 2026-05-07 12:15 | 40.56459 | -8.60096 | 19969 ft | 403 kts | 176° |
| 2026-05-07 12:15 | 40.53655 | -8.59726 | 20467 ft | 406 kts | 177° |
| 2026-05-07 12:15 | 40.50837 | -8.59369 | 20947 ft | 409 kts | 177° |
| 2026-05-07 12:15 | 40.47997 | -8.59024 | 21423 ft | 411 kts | 177° |
| 2026-05-07 12:16 | 40.45137 | -8.58685 | 21888 ft | 414 kts | 177° |
| 2026-05-07 12:16 | 40.42257 | -8.58347 | 22178 ft | 416 kts | 177° |
| 2026-05-07 12:16 | 40.39353 | -8.58003 | 22247 ft | 424 kts | 177° |
| 2026-05-07 12:16 | 40.36379 | -8.57648 | 22249 ft | 434 kts | 177° |
| 2026-05-07 12:17 | 40.33362 | -8.57284 | 22247 ft | 437 kts | 177° |
| 2026-05-07 12:17 | 40.30324 | -8.56910 | 22248 ft | 437 kts | 176° |
| 2026-05-07 12:17 | 40.27292 | -8.56536 | 22247 ft | 437 kts | 177° |
| 2026-05-07 12:17 | 40.24260 | -8.56169 | 22248 ft | 438 kts | 177° |
| 2026-05-07 12:18 | 40.21227 | -8.55807 | 22247 ft | 438 kts | 177° |
| 2026-05-07 12:18 | 40.18194 | -8.55446 | 22249 ft | 438 kts | 177° |
| 2026-05-07 12:18 | 40.15155 | -8.55083 | 22247 ft | 438 kts | 176° |
| 2026-05-07 12:18 | 40.12122 | -8.54717 | 22246 ft | 438 kts | 176° |
| 2026-05-07 12:19 | 40.09124 | -8.54350 | 22244 ft | 438 kts | 176° |
| 2026-05-07 12:19 | 40.06048 | -8.53974 | 22246 ft | 438 kts | 176° |
| 2026-05-07 12:19 | 40.03014 | -8.53600 | 22244 ft | 433 kts | 176° |
| 2026-05-07 12:19 | 40.00072 | -8.53214 | 22207 ft | 420 kts | 176° |
| 2026-05-07 12:20 | 39.97218 | -8.52831 | 22188 ft | 416 kts | 176° |
| 2026-05-07 12:20 | 39.94298 | -8.52489 | 22172 ft | 429 kts | 178° |
| 2026-05-07 12:20 | 39.91299 | -8.52240 | 22148 ft | 435 kts | 179° |
| 2026-05-07 12:20 | 39.88263 | -8.52052 | 22121 ft | 437 kts | 179° |
| 2026-05-07 12:21 | 39.85220 | -8.51895 | 22195 ft | 437 kts | 180° |
| 2026-05-07 12:21 | 39.82179 | -8.51740 | 22251 ft | 438 kts | 179° |
| 2026-05-07 12:21 | 39.79138 | -8.51759 | 22245 ft | 436 kts | 188° |
| 2026-05-07 12:21 | 39.76209 | -8.52650 | 22247 ft | 432 kts | 203° |
| 2026-05-07 12:22 | 39.73565 | -8.54490 | 22249 ft | 430 kts | 215° |
| 2026-05-07 12:22 | 39.71088 | -8.56684 | 22249 ft | 430 kts | 216° |
| 2026-05-07 12:22 | 39.68626 | -8.58893 | 22247 ft | 430 kts | 216° |
| 2026-05-07 12:22 | 39.66168 | -8.61115 | 22247 ft | 430 kts | 216° |
| 2026-05-07 12:23 | 39.63711 | -8.63343 | 22247 ft | 430 kts | 216° |
| 2026-05-07 12:23 | 39.61256 | -8.65564 | 22246 ft | 431 kts | 216° |
| 2026-05-07 12:23 | 39.58797 | -8.67778 | 22247 ft | 430 kts | 216° |
| 2026-05-07 12:23 | 39.56331 | -8.69987 | 22246 ft | 430 kts | 216° |
| 2026-05-07 12:24 | 39.53869 | -8.72190 | 22245 ft | 430 kts | 216° |
| 2026-05-07 12:24 | 39.51407 | -8.74395 | 22243 ft | 430 kts | 216° |
| 2026-05-07 12:24 | 39.48944 | -8.76598 | 22242 ft | 430 kts | 216° |
| 2026-05-07 12:24 | 39.46511 | -8.78768 | 22240 ft | 430 kts | 216° |
| 2026-05-07 12:25 | 39.44046 | -8.80967 | 22238 ft | 431 kts | 216° |
| 2026-05-07 12:25 | 39.41576 | -8.83168 | 22238 ft | 430 kts | 216° |
| 2026-05-07 12:25 | 39.39122 | -8.85353 | 22239 ft | 430 kts | 216° |
| 2026-05-07 12:25 | 39.36657 | -8.87548 | 22238 ft | 431 kts | 216° |
| 2026-05-07 12:26 | 39.34186 | -8.89744 | 22240 ft | 430 kts | 216° |
| 2026-05-07 12:26 | 39.31718 | -8.91935 | 22238 ft | 430 kts | 216° |
| 2026-05-07 12:26 | 39.29252 | -8.94123 | 22238 ft | 430 kts | 216° |
| 2026-05-07 12:26 | 39.26788 | -8.96309 | 22234 ft | 430 kts | 216° |
| 2026-05-07 12:27 | 39.24353 | -8.98470 | 22215 ft | 416 kts | 216° |
| 2026-05-07 12:27 | 39.21989 | -9.00566 | 21989 ft | 409 kts | 216° |
| 2026-05-07 12:27 | 39.19620 | -9.02664 | 20801 ft | 418 kts | 216° |
| 2026-05-07 12:27 | 39.17198 | -9.04808 | 19797 ft | 424 kts | 216° |
| 2026-05-07 12:28 | 39.14779 | -9.06946 | 19214 ft | 418 kts | 216° |
| 2026-05-07 12:28 | 39.12394 | -9.09047 | 18667 ft | 411 kts | 216° |
| 2026-05-07 12:28 | 39.10070 | -9.11089 | 18132 ft | 395 kts | 216° |
| 2026-05-07 12:28 | 39.07856 | -9.13030 | 17640 ft | 375 kts | 216° |
| 2026-05-07 12:29 | 39.05743 | -9.14889 | 17180 ft | 366 kts | 216° |
| 2026-05-07 12:29 | 39.03647 | -9.16741 | 16708 ft | 364 kts | 216° |
| 2026-05-07 12:29 | 39.01587 | -9.18555 | 16241 ft | 362 kts | 216° |
| 2026-05-07 12:29 | 38.99505 | -9.20388 | 15769 ft | 362 kts | 216° |
| 2026-05-07 12:30 | 38.97432 | -9.22213 | 15280 ft | 360 kts | 216° |
| 2026-05-07 12:30 | 38.95373 | -9.24024 | 14770 ft | 358 kts | 215° |
| 2026-05-07 12:30 | 38.93320 | -9.25822 | 14275 ft | 356 kts | 215° |
| 2026-05-07 12:30 | 38.91275 | -9.27613 | 13742 ft | 355 kts | 215° |
| 2026-05-07 12:31 | 38.89240 | -9.29398 | 13215 ft | 354 kts | 215° |
| 2026-05-07 12:31 | 38.87212 | -9.31175 | 12656 ft | 352 kts | 215° |
| 2026-05-07 12:31 | 38.85191 | -9.32939 | 12109 ft | 350 kts | 215° |
| 2026-05-07 12:31 | 38.83182 | -9.34694 | 11539 ft | 349 kts | 215° |
| 2026-05-07 12:32 | 38.81182 | -9.36438 | 11112 ft | 343 kts | 215° |
| 2026-05-07 12:32 | 38.79244 | -9.38112 | 10877 ft | 332 kts | 213° |
| 2026-05-07 12:32 | 38.77182 | -9.39503 | 10344 ft | 332 kts | 206° |
| 2026-05-07 12:32 | 38.75140 | -9.40745 | 10208 ft | 319 kts | 206° |
| 2026-05-07 12:33 | 38.71209 | -9.42878 | 9956 ft | 296 kts | 196° |
| 2026-05-07 12:33 | 38.69244 | -9.43507 | 9830 ft | 286 kts | 194° |
| 2026-05-07 12:33 | 38.67343 | -9.44083 | 9704 ft | 276 kts | 194° |
| 2026-05-07 12:34 | 38.65513 | -9.44637 | 9576 ft | 266 kts | 194° |
| 2026-05-07 12:34 | 38.63727 | -9.44960 | 9338 ft | 255 kts | 177° |
| 2026-05-07 12:34 | 38.62028 | -9.44421 | 8858 ft | 252 kts | 153° |
| 2026-05-07 12:34 | 38.60675 | -9.43079 | 8346 ft | 250 kts | 129° |
| 2026-05-07 12:35 | 38.59833 | -9.41154 | 7802 ft | 249 kts | 111° |
| 2026-05-07 12:35 | 38.59193 | -9.39095 | 7258 ft | 248 kts | 112° |
| 2026-05-07 12:35 | 38.58555 | -9.37057 | 6747 ft | 246 kts | 112° |
| 2026-05-07 12:35 | 38.57923 | -9.35038 | 6238 ft | 243 kts | 112° |
| 2026-05-07 12:36 | 38.57301 | -9.33048 | 5869 ft | 234 kts | 110° |
| 2026-05-07 12:36 | 38.57060 | -9.31093 | 5756 ft | 216 kts | 85° |
| 2026-05-07 12:36 | 38.57430 | -9.29305 | 5621 ft | 203 kts | 68° |
| 2026-05-07 12:36 | 38.57963 | -9.27659 | 5360 ft | 198 kts | 68° |
| 2026-05-07 12:37 | 38.58482 | -9.26044 | 5055 ft | 195 kts | 68° |
| 2026-05-07 12:37 | 38.59064 | -9.24483 | 4737 ft | 194 kts | 54° |
| 2026-05-07 12:37 | 38.60032 | -9.23310 | 4437 ft | 192 kts | 30° |
| 2026-05-07 12:37 | 38.61243 | -9.22626 | 4312 ft | 191 kts | 23° |
| 2026-05-07 12:38 | 38.62470 | -9.21979 | 4319 ft | 191 kts | 23° |
| 2026-05-07 12:38 | 38.63712 | -9.21296 | 4084 ft | 195 kts | 24° |
| 2026-05-07 12:38 | 38.64880 | -9.20650 | 4048 ft | 168 kts | 23° |
| 2026-05-07 12:38 | 38.65858 | -9.20106 | 4040 ft | 149 kts | 23° |
| 2026-05-07 12:39 | 38.66811 | -9.19598 | 3697 ft | 153 kts | 21° |
| 2026-05-07 12:39 | 38.67847 | -9.19074 | 3023 ft | 166 kts | 22° |
| 2026-05-07 12:39 | 38.68959 | -9.18491 | 2109 ft | 182 kts | 24° |
| 2026-05-07 12:39 | 38.70109 | -9.17880 | 1824 ft | 166 kts | 23° |
| 2026-05-07 12:40 | 38.71136 | -9.17334 | 1673 ft | 155 kts | 23° |
| 2026-05-07 12:40 | 38.72109 | -9.16816 | 1399 ft | 149 kts | 22° |
| 2026-05-07 12:40 | 38.73038 | -9.16309 | 1164 ft | 142 kts | 22° |
| 2026-05-07 12:40 | 38.73944 | -9.15829 | 931 ft | 139 kts | 21° |
| 2026-05-07 12:41 | 38.74835 | -9.15355 | 732 ft | 138 kts | 21° |
| 2026-05-07 12:41 | 38.75719 | -9.14886 | 533 ft | 138 kts | 22° |
| 2026-05-07 12:41 | 38.76599 | -9.14412 | 376 ft | 136 kts | 22° |
| 2026-05-07 12:41 | 38.77437 | -9.13962 | 363 ft | 118 kts | 22° |
| 2026-05-07 12:42 | 38.78045 | -9.13641 | 365 ft | 70 kts | 23° |
| 2026-05-07 12:42 | 38.78299 | -9.13454 | 364 ft | 20 kts | 47° |
| 2026-05-07 12:42 | 38.78378 | -9.13311 | 362 ft | 18 kts | 88° |
| 2026-05-07 12:42 | 38.78295 | -9.13277 | 359 ft | 14 kts | 201° |
| 2026-05-07 12:43 | 38.78209 | -9.13324 | 358 ft | 13 kts | 195° |
| 2026-05-07 12:43 | 38.78131 | -9.13362 | 358 ft | 11 kts | 201° |
| 2026-05-07 12:43 | 38.78073 | -9.13393 | 360 ft | 6 kts | 203° |
| 2026-05-07 12:43 | 38.78035 | -9.13412 | 357 ft | 6 kts | 195° |
| 2026-05-07 12:44 | 38.77999 | -9.13432 | 357 ft | 7 kts | 208° |
| 2026-05-07 12:44 | 38.77955 | -9.13458 | 357 ft | 7 kts | 203° |
| 2026-05-07 12:44 | 38.77896 | -9.13488 | 356 ft | 9 kts | 201° |
| 2026-05-07 12:44 | 38.77838 | -9.13513 | 355 ft | 8 kts | 188° |
| 2026-05-07 12:45 | 38.77744 | -9.13490 | 353 ft | 19 kts | 168° |
| 2026-05-07 12:45 | 38.77598 | -9.13451 | 347 ft | 23 kts | 168° |
| 2026-05-07 12:45 | 38.77456 | -9.13412 | 343 ft | 17 kts | 170° |
| 2026-05-07 12:45 | 38.77345 | -9.13375 | 348 ft | 16 kts | 147° |
| 2026-05-07 12:46 | 38.77323 | -9.13261 | 334 ft | 10 kts | 126° |
| 2026-05-07 12:46 | 38.77261 | -9.13240 | 334 ft | 9 kts | 174° |
| 2026-05-07 12:46 | 38.77248 | -9.13194 | 337 ft | 6 kts | 80° |
| 2026-05-07 12:46 | 38.77253 | -9.13162 | 337 ft | 2 kts | 78° |
| 2026-05-07 12:47 | 38.77254 | -9.13153 | 337 ft | 0 kts | 77° |